sensor_id;sensor_type;location;lat;lon;timestamp;P1;durP1;ratioP1;P2;durP2;ratioP2
77022;SDS011;65952;51.440;-2.054;2024-01-25T00:00:18;22.67;;;5.40;;
77022;SDS011;65952;51.440;-2.054;2024-01-25T00:02:43;18.15;;;5.47;;
77022;SDS011;65952;51.440;-2.054;2024-01-25T00:05:09;22.38;;;5.63;;
77022;SDS011;65952;51.440;-2.054;2024-01-25T00:07:34;22.02;;;5.13;;
77022;SDS011;65952;51.440;-2.054;2024-01-25T00:10:00;18.35;;;5.65;;
77022;SDS011;65952;51.440;-2.054;2024-01-25T00:12:26;25.15;;;5.85;;
77022;SDS011;65952;51.440;-2.054;2024-01-25T00:14:51;20.15;;;4.70;;
77022;SDS011;65952;51.440;-2.054;2024-01-25T00:17:17;22.00;;;5.35;;
77022;SDS011;65952;51.440;-2.054;2024-01-25T00:19:43;27.15;;;5.63;;
77022;SDS011;65952;51.440;-2.054;2024-01-25T00:22:08;19.95;;;5.35;;
77022;SDS011;65952;51.440;-2.054;2024-01-25T00:24:34;25.60;;;5.53;;
77022;SDS011;65952;51.440;-2.054;2024-01-25T00:26:59;15.57;;;5.05;;
77022;SDS011;65952;51.440;-2.054;2024-01-25T00:29:24;21.98;;;5.80;;
77022;SDS011;65952;51.440;-2.054;2024-01-25T00:31:50;23.63;;;5.68;;
77022;SDS011;65952;51.440;-2.054;2024-01-25T00:34:16;18.02;;;4.93;;
77022;SDS011;65952;51.440;-2.054;2024-01-25T00:36:41;24.65;;;5.70;;
77022;SDS011;65952;51.440;-2.054;2024-01-25T00:39:07;17.77;;;5.18;;
77022;SDS011;65952;51.440;-2.054;2024-01-25T00:41:33;17.73;;;5.35;;
77022;SDS011;65952;51.440;-2.054;2024-01-25T00:44:00;22.00;;;5.03;;
77022;SDS011;65952;51.440;-2.054;2024-01-25T00:46:25;23.52;;;5.70;;
77022;SDS011;65952;51.440;-2.054;2024-01-25T00:48:51;24.00;;;5.25;;
77022;SDS011;65952;51.440;-2.054;2024-01-25T00:51:19;22.48;;;5.30;;
77022;SDS011;65952;51.440;-2.054;2024-01-25T00:53:47;21.83;;;5.60;;
77022;SDS011;65952;51.440;-2.054;2024-01-25T00:56:15;18.70;;;5.55;;
77022;SDS011;65952;51.440;-2.054;2024-01-25T00:58:41;25.35;;;5.78;;
77022;SDS011;65952;51.440;-2.054;2024-01-25T01:01:07;22.05;;;6.60;;
77022;SDS011;65952;51.440;-2.054;2024-01-25T01:03:32;23.83;;;6.53;;
77022;SDS011;65952;51.440;-2.054;2024-01-25T01:05:58;18.48;;;5.05;;
77022;SDS011;65952;51.440;-2.054;2024-01-25T01:08:24;21.83;;;4.57;;
77022;SDS011;65952;51.440;-2.054;2024-01-25T01:10:51;19.13;;;4.75;;
77022;SDS011;65952;51.440;-2.054;2024-01-25T01:13:16;27.63;;;5.63;;
77022;SDS011;65952;51.440;-2.054;2024-01-25T01:15:42;20.45;;;5.00;;
77022;SDS011;65952;51.440;-2.054;2024-01-25T01:18:07;18.23;;;4.65;;
77022;SDS011;65952;51.440;-2.054;2024-01-25T01:20:32;15.77;;;4.63;;
77022;SDS011;65952;51.440;-2.054;2024-01-25T01:22:58;21.45;;;5.75;;
77022;SDS011;65952;51.440;-2.054;2024-01-25T01:25:23;24.63;;;5.28;;
77022;SDS011;65952;51.440;-2.054;2024-01-25T01:27:49;25.98;;;5.47;;
77022;SDS011;65952;51.440;-2.054;2024-01-25T01:30:14;18.15;;;4.80;;
77022;SDS011;65952;51.440;-2.054;2024-01-25T01:32:39;21.63;;;4.75;;
77022;SDS011;65952;51.440;-2.054;2024-01-25T01:35:05;29.77;;;6.47;;
77022;SDS011;65952;51.440;-2.054;2024-01-25T01:37:31;18.33;;;4.90;;
77022;SDS011;65952;51.440;-2.054;2024-01-25T01:39:56;20.40;;;5.53;;
77022;SDS011;65952;51.440;-2.054;2024-01-25T01:42:24;22.38;;;5.00;;
77022;SDS011;65952;51.440;-2.054;2024-01-25T01:44:49;45.55;;;7.88;;
77022;SDS011;65952;51.440;-2.054;2024-01-25T01:47:17;19.27;;;4.97;;
77022;SDS011;65952;51.440;-2.054;2024-01-25T01:49:42;25.90;;;6.30;;
77022;SDS011;65952;51.440;-2.054;2024-01-25T01:52:08;21.40;;;5.95;;
77022;SDS011;65952;51.440;-2.054;2024-01-25T01:54:34;23.20;;;4.82;;
77022;SDS011;65952;51.440;-2.054;2024-01-25T01:57:01;18.17;;;4.80;;
77022;SDS011;65952;51.440;-2.054;2024-01-25T01:59:27;21.83;;;6.25;;
77022;SDS011;65952;51.440;-2.054;2024-01-25T02:01:54;25.40;;;5.28;;
77022;SDS011;65952;51.440;-2.054;2024-01-25T02:04:19;20.05;;;5.43;;
77022;SDS011;65952;51.440;-2.054;2024-01-25T02:06:45;17.42;;;4.70;;
77022;SDS011;65952;51.440;-2.054;2024-01-25T02:09:11;16.65;;;5.93;;
77022;SDS011;65952;51.440;-2.054;2024-01-25T02:11:37;25.90;;;5.32;;
77022;SDS011;65952;51.440;-2.054;2024-01-25T02:14:02;17.92;;;4.75;;
77022;SDS011;65952;51.440;-2.054;2024-01-25T02:16:27;20.90;;;4.28;;
77022;SDS011;65952;51.440;-2.054;2024-01-25T02:18:53;24.38;;;5.95;;
77022;SDS011;65952;51.440;-2.054;2024-01-25T02:21:22;15.68;;;4.55;;
77022;SDS011;65952;51.440;-2.054;2024-01-25T02:23:47;17.58;;;5.55;;
77022;SDS011;65952;51.440;-2.054;2024-01-25T02:26:12;14.98;;;4.80;;
77022;SDS011;65952;51.440;-2.054;2024-01-25T02:28:38;20.25;;;4.85;;
77022;SDS011;65952;51.440;-2.054;2024-01-25T02:31:03;16.00;;;5.50;;
77022;SDS011;65952;51.440;-2.054;2024-01-25T02:33:29;14.63;;;4.30;;
77022;SDS011;65952;51.440;-2.054;2024-01-25T02:35:55;16.77;;;4.80;;
77022;SDS011;65952;51.440;-2.054;2024-01-25T02:38:20;21.10;;;5.05;;
77022;SDS011;65952;51.440;-2.054;2024-01-25T02:40:46;25.52;;;5.97;;
77022;SDS011;65952;51.440;-2.054;2024-01-25T02:43:11;17.00;;;4.90;;
77022;SDS011;65952;51.440;-2.054;2024-01-25T02:45:37;20.05;;;5.25;;
77022;SDS011;65952;51.440;-2.054;2024-01-25T02:48:02;14.82;;;4.13;;
77022;SDS011;65952;51.440;-2.054;2024-01-25T02:50:28;27.70;;;5.75;;
77022;SDS011;65952;51.440;-2.054;2024-01-25T02:52:54;25.50;;;5.68;;
77022;SDS011;65952;51.440;-2.054;2024-01-25T02:55:19;14.90;;;4.88;;
77022;SDS011;65952;51.440;-2.054;2024-01-25T02:57:45;23.33;;;5.68;;
77022;SDS011;65952;51.440;-2.054;2024-01-25T03:00:10;13.55;;;5.13;;
77022;SDS011;65952;51.440;-2.054;2024-01-25T03:02:36;20.92;;;5.88;;
77022;SDS011;65952;51.440;-2.054;2024-01-25T03:05:01;23.13;;;4.93;;
77022;SDS011;65952;51.440;-2.054;2024-01-25T03:07:27;25.38;;;5.15;;
77022;SDS011;65952;51.440;-2.054;2024-01-25T03:09:52;22.13;;;6.10;;
77022;SDS011;65952;51.440;-2.054;2024-01-25T03:12:18;21.13;;;6.07;;
77022;SDS011;65952;51.440;-2.054;2024-01-25T03:14:44;20.48;;;6.00;;
77022;SDS011;65952;51.440;-2.054;2024-01-25T03:17:10;21.40;;;5.70;;
77022;SDS011;65952;51.440;-2.054;2024-01-25T03:19:37;24.38;;;5.47;;
77022;SDS011;65952;51.440;-2.054;2024-01-25T03:22:02;18.50;;;5.60;;
77022;SDS011;65952;51.440;-2.054;2024-01-25T03:24:28;27.90;;;6.63;;
77022;SDS011;65952;51.440;-2.054;2024-01-25T03:26:53;22.23;;;6.22;;
77022;SDS011;65952;51.440;-2.054;2024-01-25T03:29:19;22.38;;;5.40;;
77022;SDS011;65952;51.440;-2.054;2024-01-25T03:31:44;22.08;;;6.30;;
77022;SDS011;65952;51.440;-2.054;2024-01-25T03:34:10;22.75;;;5.57;;
77022;SDS011;65952;51.440;-2.054;2024-01-25T03:36:35;23.75;;;7.00;;
77022;SDS011;65952;51.440;-2.054;2024-01-25T03:39:03;19.50;;;5.28;;
77022;SDS011;65952;51.440;-2.054;2024-01-25T03:41:28;18.98;;;4.80;;
77022;SDS011;65952;51.440;-2.054;2024-01-25T03:43:54;14.68;;;6.28;;
77022;SDS011;65952;51.440;-2.054;2024-01-25T03:46:20;13.55;;;5.00;;
77022;SDS011;65952;51.440;-2.054;2024-01-25T03:48:45;18.48;;;5.50;;
77022;SDS011;65952;51.440;-2.054;2024-01-25T03:51:11;15.63;;;5.43;;
77022;SDS011;65952;51.440;-2.054;2024-01-25T03:53:36;12.52;;;4.10;;
77022;SDS011;65952;51.440;-2.054;2024-01-25T03:56:02;12.20;;;4.00;;
77022;SDS011;65952;51.440;-2.054;2024-01-25T03:58:28;13.13;;;4.18;;
77022;SDS011;65952;51.440;-2.054;2024-01-25T04:00:53;9.85;;;4.25;;
77022;SDS011;65952;51.440;-2.054;2024-01-25T04:03:19;13.55;;;4.82;;
77022;SDS011;65952;51.440;-2.054;2024-01-25T04:05:44;15.75;;;4.95;;
77022;SDS011;65952;51.440;-2.054;2024-01-25T04:08:10;10.15;;;4.40;;
77022;SDS011;65952;51.440;-2.054;2024-01-25T04:10:35;14.05;;;4.85;;
77022;SDS011;65952;51.440;-2.054;2024-01-25T04:13:01;17.55;;;5.07;;
77022;SDS011;65952;51.440;-2.054;2024-01-25T04:15:27;12.68;;;4.82;;
77022;SDS011;65952;51.440;-2.054;2024-01-25T04:17:54;11.60;;;4.10;;
77022;SDS011;65952;51.440;-2.054;2024-01-25T04:20:21;14.32;;;5.03;;
77022;SDS011;65952;51.440;-2.054;2024-01-25T04:22:46;10.32;;;4.53;;
77022;SDS011;65952;51.440;-2.054;2024-01-25T04:25:12;9.18;;;4.07;;
77022;SDS011;65952;51.440;-2.054;2024-01-25T04:27:37;8.52;;;4.65;;
77022;SDS011;65952;51.440;-2.054;2024-01-25T04:30:04;8.88;;;4.25;;
77022;SDS011;65952;51.440;-2.054;2024-01-25T04:32:30;11.63;;;5.13;;
77022;SDS011;65952;51.440;-2.054;2024-01-25T04:34:55;10.77;;;4.95;;
77022;SDS011;65952;51.440;-2.054;2024-01-25T04:37:21;14.63;;;5.43;;
77022;SDS011;65952;51.440;-2.054;2024-01-25T04:39:46;9.45;;;5.00;;
77022;SDS011;65952;51.440;-2.054;2024-01-25T04:42:12;14.25;;;4.75;;
77022;SDS011;65952;51.440;-2.054;2024-01-25T04:44:37;13.13;;;4.80;;
77022;SDS011;65952;51.440;-2.054;2024-01-25T04:47:02;11.30;;;6.25;;
77022;SDS011;65952;51.440;-2.054;2024-01-25T04:49:28;13.57;;;5.13;;
77022;SDS011;65952;51.440;-2.054;2024-01-25T04:51:53;12.35;;;5.65;;
77022;SDS011;65952;51.440;-2.054;2024-01-25T04:54:19;12.52;;;4.78;;
77022;SDS011;65952;51.440;-2.054;2024-01-25T04:56:45;14.57;;;5.25;;
77022;SDS011;65952;51.440;-2.054;2024-01-25T04:59:17;14.90;;;6.18;;
77022;SDS011;65952;51.440;-2.054;2024-01-25T05:01:43;12.18;;;4.97;;
77022;SDS011;65952;51.440;-2.054;2024-01-25T05:04:08;11.88;;;5.00;;
77022;SDS011;65952;51.440;-2.054;2024-01-25T05:06:34;11.70;;;5.07;;
77022;SDS011;65952;51.440;-2.054;2024-01-25T05:09:00;11.05;;;4.95;;
77022;SDS011;65952;51.440;-2.054;2024-01-25T05:11:26;12.55;;;5.10;;
77022;SDS011;65952;51.440;-2.054;2024-01-25T05:13:51;11.70;;;4.88;;
77022;SDS011;65952;51.440;-2.054;2024-01-25T05:16:17;12.63;;;5.00;;
77022;SDS011;65952;51.440;-2.054;2024-01-25T05:18:42;11.43;;;4.80;;
77022;SDS011;65952;51.440;-2.054;2024-01-25T05:21:07;11.75;;;4.10;;
77022;SDS011;65952;51.440;-2.054;2024-01-25T05:23:33;9.85;;;5.05;;
77022;SDS011;65952;51.440;-2.054;2024-01-25T05:25:58;12.98;;;4.57;;
77022;SDS011;65952;51.440;-2.054;2024-01-25T05:28:24;10.38;;;4.20;;
77022;SDS011;65952;51.440;-2.054;2024-01-25T05:30:49;11.95;;;3.92;;
77022;SDS011;65952;51.440;-2.054;2024-01-25T05:33:15;11.30;;;5.18;;
77022;SDS011;65952;51.440;-2.054;2024-01-25T05:35:40;7.68;;;4.10;;
77022;SDS011;65952;51.440;-2.054;2024-01-25T05:38:06;9.68;;;3.85;;
77022;SDS011;65952;51.440;-2.054;2024-01-25T05:40:31;17.77;;;4.82;;
77022;SDS011;65952;51.440;-2.054;2024-01-25T05:42:57;8.27;;;3.92;;
77022;SDS011;65952;51.440;-2.054;2024-01-25T05:45:22;11.35;;;3.83;;
77022;SDS011;65952;51.440;-2.054;2024-01-25T05:47:49;8.73;;;3.10;;
77022;SDS011;65952;51.440;-2.054;2024-01-25T05:50:15;8.32;;;3.45;;
77022;SDS011;65952;51.440;-2.054;2024-01-25T05:52:40;7.43;;;3.38;;
77022;SDS011;65952;51.440;-2.054;2024-01-25T05:55:06;8.25;;;3.40;;
77022;SDS011;65952;51.440;-2.054;2024-01-25T05:57:32;9.80;;;3.90;;
77022;SDS011;65952;51.440;-2.054;2024-01-25T05:59:59;10.02;;;3.70;;
77022;SDS011;65952;51.440;-2.054;2024-01-25T06:02:25;7.05;;;3.30;;
77022;SDS011;65952;51.440;-2.054;2024-01-25T06:04:50;11.18;;;4.53;;
77022;SDS011;65952;51.440;-2.054;2024-01-25T06:07:15;8.00;;;3.20;;
77022;SDS011;65952;51.440;-2.054;2024-01-25T06:09:41;12.23;;;4.43;;
77022;SDS011;65952;51.440;-2.054;2024-01-25T06:12:06;7.50;;;3.88;;
77022;SDS011;65952;51.440;-2.054;2024-01-25T06:14:32;11.32;;;3.88;;
77022;SDS011;65952;51.440;-2.054;2024-01-25T06:16:57;8.60;;;3.60;;
77022;SDS011;65952;51.440;-2.054;2024-01-25T06:19:23;8.90;;;3.40;;
77022;SDS011;65952;51.440;-2.054;2024-01-25T06:21:48;7.63;;;3.65;;
77022;SDS011;65952;51.440;-2.054;2024-01-25T06:24:15;9.18;;;3.50;;
77022;SDS011;65952;51.440;-2.054;2024-01-25T06:26:40;8.27;;;3.80;;
77022;SDS011;65952;51.440;-2.054;2024-01-25T06:29:05;6.88;;;3.47;;
77022;SDS011;65952;51.440;-2.054;2024-01-25T06:31:31;6.63;;;3.17;;
77022;SDS011;65952;51.440;-2.054;2024-01-25T06:33:57;8.02;;;3.33;;
77022;SDS011;65952;51.440;-2.054;2024-01-25T06:36:22;7.53;;;3.22;;
77022;SDS011;65952;51.440;-2.054;2024-01-25T06:38:48;6.80;;;3.55;;
77022;SDS011;65952;51.440;-2.054;2024-01-25T06:41:14;6.10;;;3.20;;
77022;SDS011;65952;51.440;-2.054;2024-01-25T06:43:41;7.88;;;3.50;;
77022;SDS011;65952;51.440;-2.054;2024-01-25T06:46:06;7.95;;;3.40;;
77022;SDS011;65952;51.440;-2.054;2024-01-25T06:48:32;7.90;;;3.60;;
77022;SDS011;65952;51.440;-2.054;2024-01-25T06:51:01;6.55;;;3.47;;
77022;SDS011;65952;51.440;-2.054;2024-01-25T06:53:28;6.80;;;3.53;;
77022;SDS011;65952;51.440;-2.054;2024-01-25T06:55:53;7.10;;;3.47;;
77022;SDS011;65952;51.440;-2.054;2024-01-25T06:58:18;7.45;;;3.47;;
77022;SDS011;65952;51.440;-2.054;2024-01-25T07:00:44;8.55;;;3.97;;
77022;SDS011;65952;51.440;-2.054;2024-01-25T07:03:11;8.65;;;4.10;;
77022;SDS011;65952;51.440;-2.054;2024-01-25T07:05:37;6.80;;;4.07;;
77022;SDS011;65952;51.440;-2.054;2024-01-25T07:08:03;7.65;;;3.78;;
77022;SDS011;65952;51.440;-2.054;2024-01-25T07:10:29;8.20;;;3.92;;
77022;SDS011;65952;51.440;-2.054;2024-01-25T07:12:54;7.68;;;4.00;;
77022;SDS011;65952;51.440;-2.054;2024-01-25T07:15:20;7.63;;;4.03;;
77022;SDS011;65952;51.440;-2.054;2024-01-25T07:17:46;8.13;;;4.22;;
77022;SDS011;65952;51.440;-2.054;2024-01-25T07:20:11;7.13;;;3.47;;
77022;SDS011;65952;51.440;-2.054;2024-01-25T07:22:38;11.43;;;4.28;;
77022;SDS011;65952;51.440;-2.054;2024-01-25T07:25:06;8.35;;;3.97;;
77022;SDS011;65952;51.440;-2.054;2024-01-25T07:27:32;8.07;;;4.03;;
77022;SDS011;65952;51.440;-2.054;2024-01-25T07:29:57;8.35;;;3.72;;
77022;SDS011;65952;51.440;-2.054;2024-01-25T07:32:23;9.15;;;4.35;;
77022;SDS011;65952;51.440;-2.054;2024-01-25T07:34:52;8.15;;;3.65;;
77022;SDS011;65952;51.440;-2.054;2024-01-25T07:37:18;7.55;;;3.83;;
77022;SDS011;65952;51.440;-2.054;2024-01-25T07:39:44;8.85;;;4.45;;
77022;SDS011;65952;51.440;-2.054;2024-01-25T07:42:10;8.25;;;4.15;;
77022;SDS011;65952;51.440;-2.054;2024-01-25T07:44:35;8.63;;;4.03;;
77022;SDS011;65952;51.440;-2.054;2024-01-25T07:47:01;8.20;;;3.97;;
77022;SDS011;65952;51.440;-2.054;2024-01-25T07:49:27;8.70;;;4.18;;
77022;SDS011;65952;51.440;-2.054;2024-01-25T07:51:52;10.32;;;4.25;;
77022;SDS011;65952;51.440;-2.054;2024-01-25T07:54:18;11.95;;;5.10;;
77022;SDS011;65952;51.440;-2.054;2024-01-25T07:56:51;8.15;;;4.15;;
77022;SDS011;65952;51.440;-2.054;2024-01-25T07:59:16;8.68;;;3.80;;
77022;SDS011;65952;51.440;-2.054;2024-01-25T08:01:42;8.77;;;3.80;;
77022;SDS011;65952;51.440;-2.054;2024-01-25T08:04:07;11.82;;;3.95;;
77022;SDS011;65952;51.440;-2.054;2024-01-25T08:06:33;11.73;;;4.40;;
77022;SDS011;65952;51.440;-2.054;2024-01-25T08:08:58;11.07;;;3.70;;
77022;SDS011;65952;51.440;-2.054;2024-01-25T08:11:24;8.68;;;3.78;;
77022;SDS011;65952;51.440;-2.054;2024-01-25T08:13:50;10.23;;;3.85;;
77022;SDS011;65952;51.440;-2.054;2024-01-25T08:16:15;9.77;;;3.88;;
77022;SDS011;65952;51.440;-2.054;2024-01-25T08:18:47;8.57;;;3.70;;
77022;SDS011;65952;51.440;-2.054;2024-01-25T08:21:13;8.93;;;3.60;;
77022;SDS011;65952;51.440;-2.054;2024-01-25T08:23:39;8.80;;;3.70;;
77022;SDS011;65952;51.440;-2.054;2024-01-25T08:26:05;8.57;;;3.40;;
77022;SDS011;65952;51.440;-2.054;2024-01-25T08:28:34;12.10;;;3.20;;
77022;SDS011;65952;51.440;-2.054;2024-01-25T08:30:59;12.68;;;4.20;;
77022;SDS011;65952;51.440;-2.054;2024-01-25T08:33:25;8.77;;;3.65;;
77022;SDS011;65952;51.440;-2.054;2024-01-25T08:35:50;11.63;;;3.40;;
77022;SDS011;65952;51.440;-2.054;2024-01-25T08:38:16;9.30;;;3.30;;
77022;SDS011;65952;51.440;-2.054;2024-01-25T08:40:41;8.77;;;3.00;;
77022;SDS011;65952;51.440;-2.054;2024-01-25T08:43:07;8.77;;;3.05;;
77022;SDS011;65952;51.440;-2.054;2024-01-25T08:45:32;10.93;;;2.90;;
77022;SDS011;65952;51.440;-2.054;2024-01-25T08:47:58;8.40;;;3.22;;
77022;SDS011;65952;51.440;-2.054;2024-01-25T08:50:25;9.85;;;3.30;;
77022;SDS011;65952;51.440;-2.054;2024-01-25T08:52:50;12.15;;;4.45;;
77022;SDS011;65952;51.440;-2.054;2024-01-25T08:55:16;10.73;;;4.03;;
77022;SDS011;65952;51.440;-2.054;2024-01-25T08:57:41;16.88;;;4.63;;
77022;SDS011;65952;51.440;-2.054;2024-01-25T09:00:07;14.20;;;5.78;;
77022;SDS011;65952;51.440;-2.054;2024-01-25T09:02:39;15.70;;;4.85;;
77022;SDS011;65952;51.440;-2.054;2024-01-25T09:05:05;11.35;;;3.92;;
77022;SDS011;65952;51.440;-2.054;2024-01-25T09:07:31;16.70;;;4.47;;
77022;SDS011;65952;51.440;-2.054;2024-01-25T09:09:57;11.05;;;4.07;;
77022;SDS011;65952;51.440;-2.054;2024-01-25T09:12:23;9.95;;;3.63;;
77022;SDS011;65952;51.440;-2.054;2024-01-25T09:14:48;15.45;;;3.58;;
77022;SDS011;65952;51.440;-2.054;2024-01-25T09:17:14;10.07;;;3.60;;
77022;SDS011;65952;51.440;-2.054;2024-01-25T09:19:40;11.80;;;3.50;;
77022;SDS011;65952;51.440;-2.054;2024-01-25T09:22:06;14.07;;;3.90;;
77022;SDS011;65952;51.440;-2.054;2024-01-25T09:24:32;16.45;;;3.67;;
77022;SDS011;65952;51.440;-2.054;2024-01-25T09:27:01;12.55;;;3.47;;
77022;SDS011;65952;51.440;-2.054;2024-01-25T09:29:27;16.25;;;3.92;;
77022;SDS011;65952;51.440;-2.054;2024-01-25T09:31:53;9.07;;;3.78;;
77022;SDS011;65952;51.440;-2.054;2024-01-25T09:34:19;13.77;;;2.92;;
77022;SDS011;65952;51.440;-2.054;2024-01-25T09:36:45;12.68;;;4.28;;
77022;SDS011;65952;51.440;-2.054;2024-01-25T09:39:10;14.52;;;3.35;;
77022;SDS011;65952;51.440;-2.054;2024-01-25T09:41:36;8.68;;;2.60;;
77022;SDS011;65952;51.440;-2.054;2024-01-25T09:44:01;11.40;;;3.03;;
77022;SDS011;65952;51.440;-2.054;2024-01-25T09:46:28;7.82;;;2.60;;
77022;SDS011;65952;51.440;-2.054;2024-01-25T09:48:54;10.52;;;3.08;;
77022;SDS011;65952;51.440;-2.054;2024-01-25T09:51:19;14.00;;;2.97;;
77022;SDS011;65952;51.440;-2.054;2024-01-25T09:53:44;10.40;;;2.92;;
77022;SDS011;65952;51.440;-2.054;2024-01-25T09:56:13;10.75;;;2.83;;
77022;SDS011;65952;51.440;-2.054;2024-01-25T09:58:43;13.02;;;4.20;;
77022;SDS011;65952;51.440;-2.054;2024-01-25T10:01:13;9.55;;;3.15;;
77022;SDS011;65952;51.440;-2.054;2024-01-25T10:03:43;10.43;;;2.80;;
77022;SDS011;65952;51.440;-2.054;2024-01-25T10:06:11;11.30;;;2.67;;
77022;SDS011;65952;51.440;-2.054;2024-01-25T10:08:37;8.32;;;2.78;;
77022;SDS011;65952;51.440;-2.054;2024-01-25T10:11:03;19.17;;;3.70;;
77022;SDS011;65952;51.440;-2.054;2024-01-25T10:13:29;9.50;;;2.85;;
77022;SDS011;65952;51.440;-2.054;2024-01-25T10:15:56;10.43;;;3.10;;
77022;SDS011;65952;51.440;-2.054;2024-01-25T10:18:28;12.57;;;2.80;;
77022;SDS011;65952;51.440;-2.054;2024-01-25T10:20:54;9.32;;;3.05;;
77022;SDS011;65952;51.440;-2.054;2024-01-25T10:23:20;10.00;;;3.08;;
77022;SDS011;65952;51.440;-2.054;2024-01-25T10:25:47;9.73;;;2.80;;
77022;SDS011;65952;51.440;-2.054;2024-01-25T10:28:12;10.18;;;3.03;;
77022;SDS011;65952;51.440;-2.054;2024-01-25T10:30:37;15.38;;;3.30;;
77022;SDS011;65952;51.440;-2.054;2024-01-25T10:33:03;5.28;;;2.45;;
77022;SDS011;65952;51.440;-2.054;2024-01-25T10:35:30;7.47;;;3.25;;
77022;SDS011;65952;51.440;-2.054;2024-01-25T10:37:58;7.90;;;2.80;;
77022;SDS011;65952;51.440;-2.054;2024-01-25T10:40:23;10.35;;;2.80;;
77022;SDS011;65952;51.440;-2.054;2024-01-25T10:42:50;6.03;;;2.78;;
77022;SDS011;65952;51.440;-2.054;2024-01-25T10:45:15;10.10;;;2.80;;
77022;SDS011;65952;51.440;-2.054;2024-01-25T10:47:41;9.52;;;3.15;;
77022;SDS011;65952;51.440;-2.054;2024-01-25T10:50:07;7.63;;;2.65;;
77022;SDS011;65952;51.440;-2.054;2024-01-25T10:52:34;7.03;;;2.33;;
77022;SDS011;65952;51.440;-2.054;2024-01-25T10:55:02;6.65;;;2.50;;
77022;SDS011;65952;51.440;-2.054;2024-01-25T10:57:39;6.28;;;2.47;;
77022;SDS011;65952;51.440;-2.054;2024-01-25T11:00:12;6.10;;;2.88;;
77022;SDS011;65952;51.440;-2.054;2024-01-25T11:02:39;9.35;;;2.40;;
77022;SDS011;65952;51.440;-2.054;2024-01-25T11:05:06;7.05;;;2.42;;
77022;SDS011;65952;51.440;-2.054;2024-01-25T11:07:52;5.05;;;2.20;;
77022;SDS011;65952;51.440;-2.054;2024-01-25T11:10:24;4.55;;;2.13;;
77022;SDS011;65952;51.440;-2.054;2024-01-25T11:13:02;7.07;;;2.10;;
77022;SDS011;65952;51.440;-2.054;2024-01-25T11:15:31;6.57;;;2.20;;
77022;SDS011;65952;51.440;-2.054;2024-01-25T11:17:57;8.82;;;2.47;;
77022;SDS011;65952;51.440;-2.054;2024-01-25T11:20:25;7.32;;;2.60;;
77022;SDS011;65952;51.440;-2.054;2024-01-25T11:23:05;5.38;;;2.28;;
77022;SDS011;65952;51.440;-2.054;2024-01-25T11:25:35;7.05;;;2.10;;
77022;SDS011;65952;51.440;-2.054;2024-01-25T11:28:03;4.07;;;2.10;;
77022;SDS011;65952;51.440;-2.054;2024-01-25T11:30:33;6.32;;;2.40;;
77022;SDS011;65952;51.440;-2.054;2024-01-25T11:32:59;8.43;;;2.20;;
77022;SDS011;65952;51.440;-2.054;2024-01-25T11:35:25;6.28;;;2.67;;
77022;SDS011;65952;51.440;-2.054;2024-01-25T11:37:52;6.35;;;2.17;;
77022;SDS011;65952;51.440;-2.054;2024-01-25T11:40:18;7.47;;;2.72;;
77022;SDS011;65952;51.440;-2.054;2024-01-25T11:42:45;8.90;;;2.90;;
77022;SDS011;65952;51.440;-2.054;2024-01-25T11:45:13;11.77;;;3.20;;
77022;SDS011;65952;51.440;-2.054;2024-01-25T11:47:42;11.20;;;2.70;;
77022;SDS011;65952;51.440;-2.054;2024-01-25T11:50:09;6.53;;;2.40;;
77022;SDS011;65952;51.440;-2.054;2024-01-25T11:52:36;9.50;;;2.92;;
77022;SDS011;65952;51.440;-2.054;2024-01-25T11:55:02;9.35;;;2.75;;
77022;SDS011;65952;51.440;-2.054;2024-01-25T11:57:32;8.10;;;2.35;;
77022;SDS011;65952;51.440;-2.054;2024-01-25T12:00:00;6.17;;;2.13;;
77022;SDS011;65952;51.440;-2.054;2024-01-25T12:02:27;7.22;;;2.65;;
77022;SDS011;65952;51.440;-2.054;2024-01-25T12:04:53;8.07;;;2.22;;
77022;SDS011;65952;51.440;-2.054;2024-01-25T12:07:21;5.38;;;2.15;;
77022;SDS011;65952;51.440;-2.054;2024-01-25T12:10:02;6.07;;;2.15;;
77022;SDS011;65952;51.440;-2.054;2024-01-25T12:12:29;6.90;;;2.10;;
77022;SDS011;65952;51.440;-2.054;2024-01-25T12:14:58;6.88;;;2.55;;
77022;SDS011;65952;51.440;-2.054;2024-01-25T12:17:26;5.95;;;1.90;;
77022;SDS011;65952;51.440;-2.054;2024-01-25T12:19:54;7.65;;;3.38;;
77022;SDS011;65952;51.440;-2.054;2024-01-25T12:22:21;4.95;;;1.90;;
77022;SDS011;65952;51.440;-2.054;2024-01-25T12:24:47;5.45;;;1.90;;
77022;SDS011;65952;51.440;-2.054;2024-01-25T12:27:14;4.45;;;1.92;;
77022;SDS011;65952;51.440;-2.054;2024-01-25T12:29:40;5.18;;;2.33;;
77022;SDS011;65952;51.440;-2.054;2024-01-25T12:32:06;5.47;;;2.55;;
77022;SDS011;65952;51.440;-2.054;2024-01-25T12:34:31;4.47;;;2.00;;
77022;SDS011;65952;51.440;-2.054;2024-01-25T12:36:57;4.65;;;2.00;;
77022;SDS011;65952;51.440;-2.054;2024-01-25T12:39:22;3.58;;;1.83;;
77022;SDS011;65952;51.440;-2.054;2024-01-25T12:41:47;4.25;;;1.90;;
77022;SDS011;65952;51.440;-2.054;2024-01-25T12:44:13;4.30;;;1.77;;
77022;SDS011;65952;51.440;-2.054;2024-01-25T12:46:40;5.35;;;1.92;;
77022;SDS011;65952;51.440;-2.054;2024-01-25T12:49:20;3.58;;;1.75;;
77022;SDS011;65952;51.440;-2.054;2024-01-25T12:51:48;5.35;;;1.80;;
77022;SDS011;65952;51.440;-2.054;2024-01-25T12:54:13;3.58;;;1.80;;
77022;SDS011;65952;51.440;-2.054;2024-01-25T12:56:39;4.50;;;1.90;;
77022;SDS011;65952;51.440;-2.054;2024-01-25T12:59:05;3.58;;;1.90;;
77022;SDS011;65952;51.440;-2.054;2024-01-25T13:01:30;4.40;;;1.83;;
77022;SDS011;65952;51.440;-2.054;2024-01-25T13:03:56;4.15;;;1.95;;
77022;SDS011;65952;51.440;-2.054;2024-01-25T13:06:21;4.03;;;1.77;;
77022;SDS011;65952;51.440;-2.054;2024-01-25T13:08:47;4.43;;;1.80;;
77022;SDS011;65952;51.440;-2.054;2024-01-25T13:11:12;4.72;;;1.90;;
77022;SDS011;65952;51.440;-2.054;2024-01-25T13:13:38;5.93;;;1.70;;
77022;SDS011;65952;51.440;-2.054;2024-01-25T13:16:03;4.00;;;1.80;;
77022;SDS011;65952;51.440;-2.054;2024-01-25T13:18:29;4.72;;;1.75;;
77022;SDS011;65952;51.440;-2.054;2024-01-25T13:20:54;4.25;;;1.70;;
77022;SDS011;65952;51.440;-2.054;2024-01-25T13:23:20;5.07;;;2.88;;
77022;SDS011;65952;51.440;-2.054;2024-01-25T13:25:45;5.28;;;1.88;;
77022;SDS011;65952;51.440;-2.054;2024-01-25T13:28:11;6.35;;;2.20;;
77022;SDS011;65952;51.440;-2.054;2024-01-25T13:30:36;5.50;;;1.90;;
77022;SDS011;65952;51.440;-2.054;2024-01-25T13:33:01;7.20;;;2.10;;
77022;SDS011;65952;51.440;-2.054;2024-01-25T13:35:27;4.93;;;2.17;;
77022;SDS011;65952;51.440;-2.054;2024-01-25T13:37:52;4.72;;;2.10;;
77022;SDS011;65952;51.440;-2.054;2024-01-25T13:40:18;4.47;;;2.00;;
77022;SDS011;65952;51.440;-2.054;2024-01-25T13:42:43;5.55;;;2.13;;
77022;SDS011;65952;51.440;-2.054;2024-01-25T13:45:09;4.85;;;1.90;;
77022;SDS011;65952;51.440;-2.054;2024-01-25T13:47:34;4.65;;;2.00;;
77022;SDS011;65952;51.440;-2.054;2024-01-25T13:50:00;4.40;;;2.10;;
77022;SDS011;65952;51.440;-2.054;2024-01-25T13:52:25;9.20;;;2.30;;
77022;SDS011;65952;51.440;-2.054;2024-01-25T13:54:50;5.97;;;2.20;;
77022;SDS011;65952;51.440;-2.054;2024-01-25T13:57:16;3.47;;;1.75;;
77022;SDS011;65952;51.440;-2.054;2024-01-25T13:59:42;5.88;;;2.70;;
77022;SDS011;65952;51.440;-2.054;2024-01-25T14:02:07;5.47;;;2.13;;
77022;SDS011;65952;51.440;-2.054;2024-01-25T14:04:33;5.90;;;2.28;;
77022;SDS011;65952;51.440;-2.054;2024-01-25T14:06:59;3.88;;;1.70;;
77022;SDS011;65952;51.440;-2.054;2024-01-25T14:09:24;5.38;;;2.33;;
77022;SDS011;65952;51.440;-2.054;2024-01-25T14:11:49;4.05;;;2.00;;
77022;SDS011;65952;51.440;-2.054;2024-01-25T14:14:15;5.85;;;2.28;;
77022;SDS011;65952;51.440;-2.054;2024-01-25T14:16:40;6.00;;;2.20;;
77022;SDS011;65952;51.440;-2.054;2024-01-25T14:19:06;4.18;;;1.92;;
77022;SDS011;65952;51.440;-2.054;2024-01-25T14:21:31;6.65;;;2.03;;